createdAt,value
2018-02-21T00:01:06.325Z,132.27
2018-02-21T00:03:33.855Z,139.87
2018-02-21T00:06:01.380Z,140.77
2018-02-21T00:08:28.882Z,142.00
2018-02-21T00:10:56.420Z,143.90
2018-02-21T00:13:23.932Z,145.10
2018-02-21T00:15:51.429Z,162.27
2018-02-21T00:18:18.962Z,157.40
2018-02-21T00:20:47.195Z,166.10
2018-02-21T00:23:16.091Z,162.53
2018-02-21T00:25:44.396Z,132.87
2018-02-21T00:28:11.895Z,151.77
2018-02-21T00:30:39.372Z,150.53
2018-02-21T00:33:06.910Z,158.50
2018-02-21T00:35:35.258Z,153.80
2018-02-21T00:38:03.514Z,148.03
2018-02-21T00:40:31.000Z,158.50
2018-02-21T00:42:59.249Z,161.53
2018-02-21T00:45:26.730Z,172.37
2018-02-21T00:47:54.991Z,176.77
2018-02-21T00:50:22.479Z,164.23
2018-02-21T00:52:50.726Z,153.67
2018-02-21T00:55:18.211Z,160.63
2018-02-21T00:57:46.470Z,157.23
2018-02-21T01:00:13.954Z,162.43
2018-02-21T01:02:41.435Z,146.87
2018-02-21T01:05:08.936Z,170.07
2018-02-21T01:07:36.519Z,166.07
2018-02-21T01:10:04.767Z,184.13
2018-02-21T01:12:32.248Z,128.57
2018-02-21T01:15:00.490Z,158.30
2018-02-21T01:17:27.983Z,150.10
2018-02-21T01:19:56.230Z,154.53
2018-02-21T01:22:23.734Z,177.43
2018-02-21T01:24:52.038Z,173.10
2018-02-21T01:27:19.520Z,168.83
2018-02-21T01:29:47.008Z,166.23
2018-02-21T01:32:14.504Z,164.27
2018-02-21T01:34:41.982Z,170.53
2018-02-21T01:37:09.498Z,163.77
2018-02-21T01:39:37.739Z,153.77
2018-02-21T01:42:05.238Z,161.70
2018-02-21T01:44:33.486Z,178.90
2018-02-21T01:47:00.970Z,174.97
2018-02-21T01:49:29.277Z,155.63
2018-02-21T01:51:56.915Z,202.23
2018-02-21T01:54:25.165Z,189.73
2018-02-21T01:56:52.654Z,161.73
2018-02-21T01:59:20.908Z,175.67
2018-02-21T02:01:48.397Z,160.60
2018-02-21T02:04:15.885Z,158.13
2018-02-21T02:06:43.357Z,162.63
2018-02-21T02:09:10.837Z,160.43
2018-02-21T02:11:39.816Z,181.47
2018-02-21T02:14:07.348Z,164.30
2018-02-21T02:16:34.846Z,179.70
2018-02-21T02:19:02.341Z,151.27
2018-02-21T02:21:29.828Z,178.57
2018-02-21T02:23:57.330Z,184.73
2018-02-21T02:26:24.811Z,185.40
2018-02-21T02:28:53.043Z,180.93
2018-02-21T02:31:20.534Z,176.47
2018-02-21T02:33:48.777Z,183.17
2018-02-21T02:36:16.711Z,175.93
2018-02-21T02:38:56.178Z,166.87
2018-02-21T02:41:23.672Z,189.80
2018-02-21T02:43:51.910Z,171.40
2018-02-21T02:46:19.443Z,167.73
2018-02-21T02:48:46.918Z,161.23
2018-02-21T02:51:14.425Z,189.90
2018-02-21T02:53:42.673Z,156.73
2018-02-21T02:56:10.163Z,184.17
2018-02-21T02:58:38.408Z,179.80
2018-02-21T03:01:05.909Z,164.03
2018-02-21T03:03:34.158Z,180.67
2018-02-21T03:06:01.907Z,161.80
2018-02-21T03:08:29.557Z,170.83
2018-02-21T03:10:57.066Z,171.83
2018-02-21T03:13:25.290Z,177.23
2018-02-21T03:15:52.750Z,167.23
2018-02-21T03:18:20.286Z,167.07
2018-02-21T03:20:47.760Z,168.97
2018-02-21T03:23:15.231Z,178.57
2018-02-21T03:25:42.778Z,170.97
2018-02-21T03:28:10.268Z,183.87
2018-02-21T03:30:37.834Z,167.80
2018-02-21T03:33:05.313Z,162.17
2018-02-21T03:35:33.547Z,168.33
2018-02-21T03:38:01.043Z,173.10
2018-02-21T03:40:29.285Z,170.43
2018-02-21T03:42:56.783Z,190.77
2018-02-21T03:45:25.060Z,162.50
2018-02-21T03:47:53.299Z,174.67
2018-02-21T03:50:20.799Z,175.47
2018-02-21T03:52:49.458Z,201.33
2018-02-21T03:55:16.946Z,189.30
2018-02-21T03:57:45.182Z,186.57
2018-02-21T04:00:12.665Z,197.83
2018-02-21T04:02:40.142Z,194.30
2018-02-21T04:05:07.627Z,185.63
2018-02-21T04:07:35.233Z,188.60
2018-02-21T04:10:02.729Z,174.40
2018-02-21T04:12:30.201Z,194.63
2018-02-21T04:14:57.697Z,186.20
2018-02-21T04:17:26.681Z,196.53
2018-02-21T04:19:54.166Z,181.90
2018-02-21T04:22:21.640Z,177.17
2018-02-21T04:24:49.897Z,174.67
2018-02-21T04:27:17.366Z,174.93
2018-02-21T04:29:44.848Z,172.63
2018-02-21T04:32:12.351Z,218.33
2018-02-21T04:34:39.822Z,167.27
2018-02-21T04:37:07.327Z,184.77
2018-02-21T04:39:34.823Z,179.00
2018-02-21T04:42:02.314Z,152.33
2018-02-21T04:44:29.776Z,177.70
2018-02-21T04:46:57.272Z,171.73
2018-02-21T04:49:24.756Z,167.27
2018-02-21T04:51:52.268Z,173.03
2018-02-21T04:54:24.045Z,172.37
2018-02-21T04:56:58.309Z,161.50
2018-02-21T04:59:35.710Z,170.17
2018-02-21T05:02:03.196Z,168.60
2018-02-21T05:04:31.455Z,163.40
2018-02-21T05:06:58.947Z,156.87
2018-02-21T05:09:26.413Z,188.47
2018-02-21T05:11:53.900Z,197.77
2018-02-21T05:14:21.398Z,156.17
2018-02-21T05:16:49.689Z,171.10
2018-02-21T05:19:17.917Z,175.03
2018-02-21T05:21:45.398Z,175.97
2018-02-21T05:24:12.885Z,164.70
2018-02-21T05:26:40.369Z,161.73
2018-02-21T05:29:07.854Z,162.67
2018-02-21T05:31:35.321Z,157.33
2018-02-21T05:34:02.808Z,165.50
2018-02-21T05:36:31.064Z,147.30
2018-02-21T05:38:58.541Z,172.83
2018-02-21T05:41:26.032Z,170.10
2018-02-21T05:43:53.531Z,157.30
2018-02-21T05:46:21.041Z,162.23
2018-02-21T05:48:48.523Z,175.03
2018-02-21T05:51:16.029Z,174.40
2018-02-21T05:53:43.546Z,168.23
2018-02-21T05:56:11.009Z,180.40
2018-02-21T05:58:38.498Z,181.13
2018-02-21T06:01:06.739Z,184.63
2018-02-21T06:03:34.232Z,176.53
2018-02-21T06:06:01.731Z,165.07
2018-02-21T06:08:29.187Z,164.63
2018-02-21T06:10:56.676Z,189.83
2018-02-21T06:13:24.171Z,182.60
2018-02-21T06:15:52.601Z,176.30
2018-02-21T06:18:20.075Z,171.93
2018-02-21T06:20:47.564Z,163.83
2018-02-21T06:23:15.067Z,161.93
2018-02-21T06:25:42.649Z,187.60
2018-02-21T06:28:10.158Z,181.80
2018-02-21T06:30:38.434Z,168.67
2018-02-21T06:33:06.683Z,159.97
2018-02-21T06:35:34.919Z,164.27
2018-02-21T06:38:02.442Z,164.30
2018-02-21T06:40:31.724Z,160.73
2018-02-21T06:42:59.223Z,171.20
2018-02-21T06:45:26.759Z,172.53
2018-02-21T06:47:54.990Z,162.20
2018-02-21T06:50:23.447Z,155.50
2018-02-21T06:52:50.977Z,186.17
2018-02-21T06:55:19.217Z,153.83
2018-02-21T06:57:46.836Z,140.77
2018-02-21T07:00:14.798Z,156.47
2018-02-21T07:02:42.292Z,150.40
2018-02-21T07:05:09.878Z,159.83
2018-02-21T07:07:37.424Z,169.20
2018-02-21T07:10:04.945Z,161.73
2018-02-21T07:12:32.416Z,175.43
2018-02-21T07:14:59.913Z,159.53
2018-02-21T07:17:27.394Z,147.13
2018-02-21T07:19:55.644Z,155.37
2018-02-21T07:22:23.161Z,170.23
2018-02-21T07:24:50.649Z,163.87
2018-02-21T07:27:18.146Z,176.57
2018-02-21T07:29:46.396Z,149.77
2018-02-21T07:32:13.871Z,147.83
2018-02-21T07:34:41.365Z,155.03
2018-02-21T07:37:08.848Z,159.43
2018-02-21T07:39:36.358Z,146.80
2018-02-21T07:42:04.593Z,143.93
2018-02-21T07:44:32.887Z,162.37
2018-02-21T07:47:00.388Z,139.37
2018-02-21T07:49:27.880Z,136.63
2018-02-21T07:51:55.543Z,157.73
2018-02-21T07:54:23.026Z,166.97
2018-02-21T07:56:50.522Z,144.20
2018-02-21T07:59:18.785Z,129.73
2018-02-21T08:01:47.026Z,153.20
2018-02-21T08:04:14.494Z,133.97
2018-02-21T08:06:42.051Z,138.97
2018-02-21T08:09:09.535Z,139.43
2018-02-21T08:11:37.053Z,122.30
2018-02-21T08:14:04.552Z,125.03
2018-02-21T08:16:32.019Z,122.80
2018-02-21T08:19:00.252Z,120.10
2018-02-21T08:21:27.732Z,116.13
2018-02-21T08:23:55.273Z,120.53
2018-02-21T08:26:22.743Z,110.83
2018-02-21T08:28:50.249Z,110.20
2018-02-21T08:31:30.675Z,126.10
2018-02-21T08:33:58.180Z,108.23
2018-02-21T08:36:25.660Z,124.40
2018-02-21T08:38:53.161Z,113.47
2018-02-21T08:41:20.635Z,109.93
2018-02-21T08:43:48.102Z,121.90
2018-02-21T08:46:15.605Z,124.23
2018-02-21T08:48:43.862Z,120.50
2018-02-21T08:51:11.762Z,121.67
2018-02-21T08:53:39.268Z,130.03
2018-02-21T08:56:07.584Z,132.47
2018-02-21T08:58:35.823Z,117.33
2018-02-21T09:01:03.296Z,114.07
2018-02-21T09:03:30.757Z,128.00
2018-02-21T09:05:58.253Z,102.33
2018-02-21T09:08:26.501Z,108.33
2018-02-21T09:10:53.996Z,124.87
2018-02-21T09:13:21.486Z,125.17
2018-02-21T09:15:48.960Z,123.07
2018-02-21T09:18:16.556Z,103.60
2018-02-21T09:20:44.825Z,109.07
2018-02-21T09:23:13.110Z,103.53
2018-02-21T09:25:41.351Z,100.67
2018-02-21T09:28:08.823Z,111.53
2018-02-21T09:30:36.282Z,103.20
2018-02-21T09:33:03.765Z,110.83
2018-02-21T09:35:31.991Z,100.60
2018-02-21T09:37:59.468Z,103.90
2018-02-21T09:40:27.247Z,120.73
2018-02-21T09:42:55.598Z,108.53
2018-02-21T09:45:23.086Z,115.97
2018-02-21T09:47:51.374Z,124.37
2018-02-21T09:50:19.713Z,124.60
2018-02-21T09:52:47.191Z,116.07
2018-02-21T09:55:14.671Z,131.37
2018-02-21T09:57:42.898Z,120.53
2018-02-21T10:00:10.824Z,133.53
2018-02-21T10:02:39.066Z,143.17
2018-02-21T10:05:06.534Z,142.43
2018-02-21T10:07:34.045Z,137.57
2018-02-21T10:10:01.527Z,145.77
2018-02-21T10:12:29.168Z,114.33
2018-02-21T10:14:56.899Z,136.83
2018-02-21T10:17:25.135Z,139.90
2018-02-21T10:19:52.627Z,152.43
2018-02-21T10:22:20.953Z,149.47
2018-02-21T10:24:48.414Z,155.13
2018-02-21T10:27:15.906Z,163.60
2018-02-21T10:29:44.175Z,168.00
2018-02-21T10:32:11.660Z,142.70
2018-02-21T10:34:39.915Z,155.30
2018-02-21T10:37:07.396Z,145.47
2018-02-21T10:39:35.630Z,140.10
2018-02-21T10:42:03.127Z,140.67
2018-02-21T10:44:31.355Z,137.87
2018-02-21T10:46:58.846Z,121.97
2018-02-21T10:49:26.313Z,130.40
2018-02-21T10:51:54.596Z,132.73
2018-02-21T10:54:22.854Z,146.73
2018-02-21T10:56:50.341Z,137.37
2018-02-21T10:59:18.583Z,125.20
2018-02-21T11:01:46.050Z,170.20
2018-02-21T11:04:13.541Z,140.70
2018-02-21T11:06:41.007Z,147.37
2018-02-21T11:09:08.487Z,142.57
2018-02-21T11:11:35.954Z,147.53
2018-02-21T11:14:03.462Z,151.63
2018-02-21T11:16:31.703Z,149.77
2018-02-21T11:18:59.199Z,148.90
2018-02-21T11:21:27.426Z,146.53
2018-02-21T11:23:55.085Z,136.97
2018-02-21T11:26:22.685Z,149.37
2018-02-21T11:28:50.970Z,132.00
2018-02-21T11:31:18.443Z,149.77
2018-02-21T11:33:47.084Z,127.53
2018-02-21T11:36:14.584Z,145.00
2018-02-21T11:38:42.893Z,135.13
2018-02-21T11:41:10.902Z,143.83
2018-02-21T11:43:38.473Z,151.63
2018-02-21T11:46:05.960Z,139.07
2018-02-21T11:48:33.458Z,145.93
2018-02-21T11:51:01.216Z,165.87
2018-02-21T11:53:28.805Z,142.23
2018-02-21T11:55:57.733Z,134.10
2018-02-21T11:58:25.591Z,137.80
2018-02-21T12:00:54.116Z,136.17
2018-02-21T12:03:21.646Z,135.03
2018-02-21T12:05:50.173Z,146.90
2018-02-21T12:08:17.678Z,127.03
2018-02-21T12:10:47.081Z,141.77
2018-02-21T12:13:16.022Z,128.93
2018-02-21T12:15:43.483Z,132.43
2018-02-21T12:18:11.094Z,143.40
2018-02-21T12:20:39.353Z,128.17
2018-02-21T12:23:07.626Z,129.73
2018-02-21T12:25:35.131Z,143.57
2018-02-21T12:28:02.700Z,139.80
2018-02-21T12:30:30.289Z,145.53
2018-02-21T12:32:58.525Z,143.57
2018-02-21T12:35:26.125Z,138.37
2018-02-21T12:37:53.636Z,132.10
2018-02-21T12:40:26.723Z,133.63
2018-02-21T12:42:54.990Z,131.43
2018-02-21T12:45:22.494Z,122.83
2018-02-21T12:47:50.921Z,146.07
2018-02-21T12:50:18.547Z,145.47
2018-02-21T12:52:46.026Z,139.07
2018-02-21T12:55:13.793Z,125.57
2018-02-21T12:57:41.359Z,133.57
2018-02-21T13:00:08.853Z,138.17
2018-02-21T13:02:37.089Z,138.90
2018-02-21T13:05:04.576Z,133.67
2018-02-21T13:07:33.022Z,119.57
2018-02-21T13:10:01.022Z,106.73
2018-02-21T13:12:28.492Z,106.27
2018-02-21T13:14:56.794Z,121.80
2018-02-21T13:17:24.291Z,115.87
2018-02-21T13:19:51.776Z,116.90
2018-02-21T13:22:19.271Z,97.87
2018-02-21T13:24:46.760Z,110.00
2018-02-21T13:27:14.501Z,121.53
2018-02-21T13:29:42.009Z,113.80
2018-02-21T13:32:09.508Z,101.87
2018-02-21T13:34:37.766Z,104.33
2018-02-21T13:37:06.121Z,96.30
2018-02-21T13:39:33.710Z,119.53
2018-02-21T13:42:01.177Z,89.50
2018-02-21T13:44:29.682Z,99.20
2018-02-21T13:46:57.193Z,88.73
2018-02-21T13:49:24.676Z,101.77
2018-02-21T13:51:52.918Z,85.97
2018-02-21T13:54:20.433Z,77.97
2018-02-21T13:56:47.919Z,65.93
2018-02-21T13:59:15.412Z,70.97
2018-02-21T14:01:42.884Z,80.10
2018-02-21T14:04:11.161Z,72.47
2018-02-21T14:06:39.403Z,93.50
2018-02-21T14:09:06.912Z,72.63
2018-02-21T14:11:36.420Z,76.73
2018-02-21T14:14:03.920Z,67.13
2018-02-21T14:16:31.397Z,63.13
2018-02-21T14:18:58.861Z,68.43
2018-02-21T14:21:26.359Z,63.20
2018-02-21T14:23:53.852Z,76.30
2018-02-21T14:26:21.347Z,83.17
2018-02-21T14:28:49.590Z,68.07
2018-02-21T14:31:17.104Z,77.30
2018-02-21T14:33:44.618Z,69.40
2018-02-21T14:36:12.149Z,76.27
2018-02-21T14:38:39.664Z,83.30
2018-02-21T14:41:08.072Z,75.23
2018-02-21T14:43:35.561Z,66.47
2018-02-21T14:46:03.055Z,66.03
2018-02-21T14:48:32.030Z,65.27
2018-02-21T14:50:59.586Z,79.73
2018-02-21T14:53:27.067Z,68.50
2018-02-21T14:55:55.309Z,87.00
2018-02-21T14:58:22.800Z,75.83
2018-02-21T15:00:51.071Z,72.63
2018-02-21T15:03:20.154Z,66.37
2018-02-21T15:05:47.697Z,67.83
2018-02-21T15:08:15.176Z,72.47
2018-02-21T15:10:47.273Z,73.37
2018-02-21T15:13:19.834Z,68.13
2018-02-21T15:15:51.802Z,69.10
2018-02-21T15:18:21.464Z,64.30
2018-02-21T15:20:49.412Z,72.33
2018-02-21T15:23:16.966Z,68.40
2018-02-21T15:25:44.449Z,65.93
2018-02-21T15:28:17.731Z,70.00
2018-02-21T15:30:45.224Z,79.67
2018-02-21T15:33:12.960Z,75.27
2018-02-21T15:35:40.435Z,61.80
2018-02-21T15:38:10.037Z,67.63
2018-02-21T15:40:38.355Z,70.43
2018-02-21T15:43:05.821Z,71.33
2018-02-21T15:45:34.632Z,63.07
2018-02-21T15:48:02.450Z,68.10
2018-02-21T15:50:29.929Z,70.20
2018-02-21T15:52:57.383Z,59.13
2018-02-21T15:55:24.880Z,58.70
2018-02-21T15:57:52.359Z,106.70
2018-02-21T16:00:19.965Z,57.03
2018-02-21T16:02:47.954Z,60.17
2018-02-21T16:05:16.446Z,61.60
2018-02-21T16:07:44.668Z,78.40
2018-02-21T16:10:12.127Z,60.80
2018-02-21T16:12:39.629Z,76.00
2018-02-21T16:15:07.946Z,59.63
2018-02-21T16:17:35.451Z,58.03
2018-02-21T16:20:03.479Z,69.07
2018-02-21T16:22:31.104Z,70.37
2018-02-21T16:24:59.349Z,66.97
2018-02-21T16:27:26.835Z,69.07
2018-02-21T16:29:55.063Z,80.97
2018-02-21T16:32:22.618Z,78.07
2018-02-21T16:34:50.789Z,67.50
2018-02-21T16:37:18.288Z,65.80
2018-02-21T16:39:45.755Z,64.93
2018-02-21T16:42:13.326Z,57.17
2018-02-21T16:44:41.555Z,60.17
2018-02-21T16:47:09.567Z,63.50
2018-02-21T16:49:38.082Z,69.37
2018-02-21T16:52:05.539Z,62.57
2018-02-21T16:54:33.028Z,69.10
2018-02-21T16:57:01.059Z,66.10
2018-02-21T16:59:28.588Z,68.30
2018-02-21T17:02:00.188Z,74.17
2018-02-21T17:04:27.928Z,67.97
2018-02-21T17:06:55.413Z,62.60
2018-02-21T17:09:23.711Z,73.20
2018-02-21T17:11:51.170Z,71.07
2018-02-21T17:14:18.686Z,64.33
2018-02-21T17:16:47.490Z,71.43
2018-02-21T17:19:15.031Z,72.87
2018-02-21T17:21:43.288Z,82.87
2018-02-21T17:24:12.828Z,74.03
2018-02-21T17:26:41.072Z,63.23
2018-02-21T17:29:09.326Z,76.27
2018-02-21T17:31:36.832Z,69.73
2018-02-21T17:34:04.290Z,72.53
2018-02-21T17:36:31.775Z,80.60
2018-02-21T17:38:59.247Z,71.33
2018-02-21T17:41:32.813Z,74.33
2018-02-21T17:44:00.300Z,74.67
2018-02-21T17:46:27.799Z,56.23
2018-02-21T17:48:55.776Z,77.30
2018-02-21T17:51:24.022Z,70.03
2018-02-21T17:53:51.497Z,79.97
2018-02-21T17:56:20.974Z,63.43
2018-02-21T17:58:48.538Z,67.33
2018-02-21T18:01:16.006Z,69.50
2018-02-21T18:03:46.997Z,64.90
2018-02-21T18:06:14.481Z,58.60
2018-02-21T18:08:41.939Z,65.37
2018-02-21T18:11:09.407Z,56.53
2018-02-21T18:13:36.906Z,66.53
2018-02-21T18:16:05.139Z,61.13
2018-02-21T18:18:33.382Z,61.73
2018-02-21T18:21:02.062Z,75.97
2018-02-21T18:23:30.326Z,79.27
2018-02-21T18:25:58.844Z,67.60
2018-02-21T18:28:26.319Z,76.53
2018-02-21T18:30:53.783Z,73.50
2018-02-21T18:33:21.247Z,70.07
2018-02-21T18:35:49.415Z,82.00
2018-02-21T18:38:16.899Z,70.57
2018-02-21T18:40:44.378Z,79.43
2018-02-21T18:43:12.693Z,88.87
2018-02-21T18:45:40.181Z,82.37
2018-02-21T18:48:07.638Z,79.53
2018-02-21T18:50:35.138Z,86.50
2018-02-21T18:53:02.625Z,80.87
2018-02-21T18:55:30.095Z,78.40
2018-02-21T18:57:57.586Z,89.97
2018-02-21T19:00:25.066Z,95.00
2018-02-21T19:02:53.326Z,84.77
2018-02-21T19:05:21.069Z,101.87
2018-02-21T19:07:48.531Z,92.87
2018-02-21T19:10:16.033Z,87.10
2018-02-21T19:12:43.511Z,78.47
2018-02-21T19:15:11.492Z,86.73
2018-02-21T19:17:38.959Z,94.87
2018-02-21T19:20:06.431Z,81.13
2018-02-21T19:22:33.889Z,81.67
2018-02-21T19:25:02.540Z,85.07
2018-02-21T19:27:30.013Z,89.50
2018-02-21T19:29:57.491Z,87.40
2018-02-21T19:32:24.980Z,100.40
2018-02-21T19:34:53.228Z,93.90
2018-02-21T19:37:20.755Z,84.77
2018-02-21T19:39:48.214Z,89.97
2018-02-21T19:42:15.688Z,87.93
2018-02-21T19:44:43.150Z,88.33
2018-02-21T19:47:11.386Z,84.33
2018-02-21T19:49:40.041Z,85.77
2018-02-21T19:52:07.833Z,109.50
2018-02-21T19:54:36.067Z,92.43
2018-02-21T19:57:03.576Z,93.77
2018-02-21T19:59:31.052Z,92.93
2018-02-21T20:01:58.544Z,102.63
2018-02-21T20:04:25.994Z,85.73
2018-02-21T20:06:53.513Z,97.83
2018-02-21T20:09:20.991Z,96.80
2018-02-21T20:11:48.497Z,93.63
2018-02-21T20:14:16.039Z,97.50
2018-02-21T20:16:43.528Z,95.57
2018-02-21T20:19:11.792Z,94.50
2018-02-21T20:21:39.820Z,94.23
2018-02-21T20:24:07.523Z,99.87
2018-02-21T20:26:35.011Z,111.13
2018-02-21T20:29:02.489Z,99.03
2018-02-21T20:31:29.996Z,108.03
2018-02-21T20:33:57.480Z,109.87
2018-02-21T20:36:26.117Z,99.60
2018-02-21T20:38:53.829Z,102.80
2018-02-21T20:41:22.304Z,103.30
2018-02-21T20:43:50.554Z,110.73
2018-02-21T20:46:18.042Z,115.67
2018-02-21T20:48:46.677Z,90.30
2018-02-21T20:51:14.254Z,107.53
2018-02-21T20:53:41.742Z,115.47
2018-02-21T20:56:10.019Z,116.83
2018-02-21T20:58:38.381Z,101.20
2018-02-21T21:01:06.665Z,137.40
2018-02-21T21:03:34.226Z,105.23
2018-02-21T21:06:01.683Z,109.37
2018-02-21T21:08:29.190Z,113.90
2018-02-21T21:10:56.676Z,111.17
2018-02-21T21:13:24.159Z,99.07
2018-02-21T21:15:51.631Z,105.27
2018-02-21T21:18:19.892Z,117.07
2018-02-21T21:20:47.370Z,114.27
2018-02-21T21:23:15.708Z,107.67
2018-02-21T21:25:43.256Z,111.60
2018-02-21T21:28:10.758Z,108.27
2018-02-21T21:30:38.561Z,103.87
2018-02-21T21:33:06.184Z,113.23
2018-02-21T21:35:33.968Z,107.53
2018-02-21T21:38:02.214Z,90.03
2018-02-21T21:40:29.751Z,98.70
2018-02-21T21:42:57.268Z,92.77
2018-02-21T21:45:24.775Z,91.50
2018-02-21T21:47:52.271Z,95.17
2018-02-21T21:50:20.523Z,87.93
2018-02-21T21:52:48.907Z,80.43
2018-02-21T21:55:17.194Z,87.57
2018-02-21T21:57:44.661Z,95.93
2018-02-21T22:00:12.917Z,92.63
2018-02-21T22:02:40.399Z,93.73
2018-02-21T22:05:08.634Z,80.67
2018-02-21T22:07:36.114Z,99.67
2018-02-21T22:10:03.632Z,81.47
2018-02-21T22:12:31.102Z,77.03
2018-02-21T22:14:58.578Z,80.90
2018-02-21T22:17:26.069Z,89.17
2018-02-21T22:19:54.326Z,98.30
2018-02-21T22:22:21.795Z,84.80
2018-02-21T22:24:50.039Z,97.13
2018-02-21T22:27:17.562Z,86.53
2018-02-21T22:29:45.027Z,73.57
2018-02-21T22:32:12.687Z,90.97
2018-02-21T22:34:40.160Z,79.27
2018-02-21T22:37:07.643Z,84.47
2018-02-21T22:39:35.103Z,80.07
2018-02-21T22:42:02.595Z,102.60
2018-02-21T22:44:30.840Z,79.10
2018-02-21T22:46:58.315Z,90.00
2018-02-21T22:49:25.797Z,90.13
2018-02-21T22:51:53.267Z,99.40
2018-02-21T22:54:20.727Z,77.27
2018-02-21T22:56:48.227Z,101.80
2018-02-21T22:59:15.706Z,97.43
2018-02-21T23:01:43.948Z,90.93
2018-02-21T23:04:12.968Z,85.90
2018-02-21T23:06:41.198Z,103.80
2018-02-21T23:09:08.774Z,77.87
2018-02-21T23:11:36.277Z,85.83
2018-02-21T23:14:04.527Z,94.07
2018-02-21T23:16:32.038Z,92.50
2018-02-21T23:18:59.502Z,98.97
2018-02-21T23:21:26.975Z,92.63
2018-02-21T23:23:54.457Z,86.10
2018-02-21T23:26:21.922Z,82.63
2018-02-21T23:28:49.406Z,107.73
2018-02-21T23:31:17.651Z,98.27
2018-02-21T23:33:45.132Z,93.07
2018-02-21T23:36:12.606Z,95.80
2018-02-21T23:38:40.900Z,110.27
2018-02-21T23:41:08.405Z,92.40
2018-02-21T23:43:35.858Z,94.70
2018-02-21T23:46:03.337Z,80.67
2018-02-21T23:48:30.834Z,69.27
2018-02-21T23:50:58.314Z,75.13
2018-02-21T23:53:25.810Z,80.47
2018-02-21T23:55:53.293Z,73.97
2018-02-21T23:58:20.777Z,90.43
